sensor_id;sensor_type;location;lat;lon;timestamp;temperature;humidity
19868;DHT22;10096;51.112;6.776;2023-07-31T00:02:26;18.30;1.00
19868;DHT22;10096;51.112;6.776;2023-07-31T00:04:55;18.40;1.00
19868;DHT22;10096;51.112;6.776;2023-07-31T00:07:23;18.10;1.00
19868;DHT22;10096;51.112;6.776;2023-07-31T00:09:51;18.30;1.00
19868;DHT22;10096;51.112;6.776;2023-07-31T00:12:19;18.20;1.00
19868;DHT22;10096;51.112;6.776;2023-07-31T00:14:46;18.10;1.00
19868;DHT22;10096;51.112;6.776;2023-07-31T00:17:13;18.30;1.00
19868;DHT22;10096;51.112;6.776;2023-07-31T00:19:40;18.20;1.00
19868;DHT22;10096;51.112;6.776;2023-07-31T00:22:07;18.20;1.00
19868;DHT22;10096;51.112;6.776;2023-07-31T00:24:34;18.20;1.00
19868;DHT22;10096;51.112;6.776;2023-07-31T00:27:03;18.10;1.00
19868;DHT22;10096;51.112;6.776;2023-07-31T00:29:30;18.10;1.00
19868;DHT22;10096;51.112;6.776;2023-07-31T00:31:57;18.20;99.90
19868;DHT22;10096;51.112;6.776;2023-07-31T00:34:24;18.10;99.90
19868;DHT22;10096;51.112;6.776;2023-07-31T00:36:51;18.20;99.90
19868;DHT22;10096;51.112;6.776;2023-07-31T00:39:18;18.50;99.90
19868;DHT22;10096;51.112;6.776;2023-07-31T00:41:45;18.30;99.90
19868;DHT22;10096;51.112;6.776;2023-07-31T00:44:14;18.20;99.90
19868;DHT22;10096;51.112;6.776;2023-07-31T00:46:41;18.30;99.90
19868;DHT22;10096;51.112;6.776;2023-07-31T00:49:09;18.30;99.90
19868;DHT22;10096;51.112;6.776;2023-07-31T00:51:36;18.20;99.90
19868;DHT22;10096;51.112;6.776;2023-07-31T00:54:03;18.20;99.90
19868;DHT22;10096;51.112;6.776;2023-07-31T00:56:30;18.20;99.90
19868;DHT22;10096;51.112;6.776;2023-07-31T00:59:00;18.20;99.90
19868;DHT22;10096;51.112;6.776;2023-07-31T01:01:31;18.20;99.90
19868;DHT22;10096;51.112;6.776;2023-07-31T01:04:00;18.30;99.90
19868;DHT22;10096;51.112;6.776;2023-07-31T01:06:33;18.10;99.90
19868;DHT22;10096;51.112;6.776;2023-07-31T01:09:06;18.10;99.90
19868;DHT22;10096;51.112;6.776;2023-07-31T01:11:38;18.20;99.90
19868;DHT22;10096;51.112;6.776;2023-07-31T01:14:06;18.10;99.90
19868;DHT22;10096;51.112;6.776;2023-07-31T01:16:34;18.30;99.90
19868;DHT22;10096;51.112;6.776;2023-07-31T01:19:01;18.40;99.90
19868;DHT22;10096;51.112;6.776;2023-07-31T01:21:41;18.10;99.90
19868;DHT22;10096;51.112;6.776;2023-07-31T01:24:30;18.20;99.90
19868;DHT22;10096;51.112;6.776;2023-07-31T01:27:06;18.30;99.90
19868;DHT22;10096;51.112;6.776;2023-07-31T01:29:37;18.10;99.90
19868;DHT22;10096;51.112;6.776;2023-07-31T01:32:06;18.20;92.90
19868;DHT22;10096;51.112;6.776;2023-07-31T01:34:35;18.10;96.90
19868;DHT22;10096;51.112;6.776;2023-07-31T01:37:03;18.10;62.00
19868;DHT22;10096;51.112;6.776;2023-07-31T01:39:30;18.10;8.30
19868;DHT22;10096;51.112;6.776;2023-07-31T01:41:57;18.10;2.60
19868;DHT22;10096;51.112;6.776;2023-07-31T01:44:26;18.20;1.80
19868;DHT22;10096;51.112;6.776;2023-07-31T01:46:53;18.20;5.50
19868;DHT22;10096;51.112;6.776;2023-07-31T01:49:20;18.20;1.00
19868;DHT22;10096;51.112;6.776;2023-07-31T01:51:48;18.20;1.00
19868;DHT22;10096;51.112;6.776;2023-07-31T01:54:15;18.30;5.10
19868;DHT22;10096;51.112;6.776;2023-07-31T01:56:42;18.40;1.00
19868;DHT22;10096;51.112;6.776;2023-07-31T01:59:09;18.30;1.00
19868;DHT22;10096;51.112;6.776;2023-07-31T02:01:37;18.30;1.00
19868;DHT22;10096;51.112;6.776;2023-07-31T02:04:05;18.30;29.20
19868;DHT22;10096;51.112;6.776;2023-07-31T02:06:33;18.20;1.00
19868;DHT22;10096;51.112;6.776;2023-07-31T02:09:00;18.20;12.30
19868;DHT22;10096;51.112;6.776;2023-07-31T02:11:26;18.20;30.60
19868;DHT22;10096;51.112;6.776;2023-07-31T02:13:53;18.10;37.80
19868;DHT22;10096;51.112;6.776;2023-07-31T02:16:20;18.20;33.10
19868;DHT22;10096;51.112;6.776;2023-07-31T02:18:49;18.20;10.80
19868;DHT22;10096;51.112;6.776;2023-07-31T02:21:16;18.50;1.00
19868;DHT22;10096;51.112;6.776;2023-07-31T02:23:43;18.30;20.30
19868;DHT22;10096;51.112;6.776;2023-07-31T02:26:10;18.20;1.00
19868;DHT22;10096;51.112;6.776;2023-07-31T02:28:37;18.30;1.00
19868;DHT22;10096;51.112;6.776;2023-07-31T02:31:04;18.30;24.20
19868;DHT22;10096;51.112;6.776;2023-07-31T02:33:31;18.30;24.50
19868;DHT22;10096;51.112;6.776;2023-07-31T02:35:59;18.60;1.00
19868;DHT22;10096;51.112;6.776;2023-07-31T02:38:26;18.60;1.00
19868;DHT22;10096;51.112;6.776;2023-07-31T02:40:53;18.20;5.50
19868;DHT22;10096;51.112;6.776;2023-07-31T02:43:20;18.20;59.80
19868;DHT22;10096;51.112;6.776;2023-07-31T02:45:51;18.20;82.30
19868;DHT22;10096;51.112;6.776;2023-07-31T02:48:18;18.20;61.30
19868;DHT22;10096;51.112;6.776;2023-07-31T02:50:47;18.20;61.30
19868;DHT22;10096;51.112;6.776;2023-07-31T02:53:15;18.30;42.20
19868;DHT22;10096;51.112;6.776;2023-07-31T02:55:42;18.40;5.90
19868;DHT22;10096;51.112;6.776;2023-07-31T02:58:09;18.40;1.00
19868;DHT22;10096;51.112;6.776;2023-07-31T03:00:42;18.50;1.00
19868;DHT22;10096;51.112;6.776;2023-07-31T03:03:09;18.40;1.00
19868;DHT22;10096;51.112;6.776;2023-07-31T03:05:35;18.60;1.00
19868;DHT22;10096;51.112;6.776;2023-07-31T03:08:03;18.30;1.00
19868;DHT22;10096;51.112;6.776;2023-07-31T03:10:31;18.30;1.00
19868;DHT22;10096;51.112;6.776;2023-07-31T03:12:58;18.30;1.00
19868;DHT22;10096;51.112;6.776;2023-07-31T03:15:25;18.40;1.00
19868;DHT22;10096;51.112;6.776;2023-07-31T03:17:52;18.40;1.00
19868;DHT22;10096;51.112;6.776;2023-07-31T03:20:19;18.40;1.00
19868;DHT22;10096;51.112;6.776;2023-07-31T03:22:46;18.50;1.00
19868;DHT22;10096;51.112;6.776;2023-07-31T03:25:13;18.50;1.00
19868;DHT22;10096;51.112;6.776;2023-07-31T03:27:42;18.50;1.00
19868;DHT22;10096;51.112;6.776;2023-07-31T03:30:09;18.70;1.00
19868;DHT22;10096;51.112;6.776;2023-07-31T03:32:36;18.50;1.00
19868;DHT22;10096;51.112;6.776;2023-07-31T03:35:04;18.70;1.00
19868;DHT22;10096;51.112;6.776;2023-07-31T03:37:31;18.60;1.00
19868;DHT22;10096;51.112;6.776;2023-07-31T03:39:58;18.80;1.00
19868;DHT22;10096;51.112;6.776;2023-07-31T03:42:25;18.60;3.40
19868;DHT22;10096;51.112;6.776;2023-07-31T03:44:54;18.50;57.60
19868;DHT22;10096;51.112;6.776;2023-07-31T03:47:20;18.40;99.90
19868;DHT22;10096;51.112;6.776;2023-07-31T03:49:47;18.40;99.90
19868;DHT22;10096;51.112;6.776;2023-07-31T03:52:14;18.30;99.90
19868;DHT22;10096;51.112;6.776;2023-07-31T03:54:41;18.40;99.90
19868;DHT22;10096;51.112;6.776;2023-07-31T03:57:10;18.40;99.90
19868;DHT22;10096;51.112;6.776;2023-07-31T03:59:36;18.50;99.90
19868;DHT22;10096;51.112;6.776;2023-07-31T04:02:06;18.70;38.70
19868;DHT22;10096;51.112;6.776;2023-07-31T04:04:32;18.70;49.60
19868;DHT22;10096;51.112;6.776;2023-07-31T04:06:59;18.70;3.70
19868;DHT22;10096;51.112;6.776;2023-07-31T04:09:26;18.50;1.00
19868;DHT22;10096;51.112;6.776;2023-07-31T04:11:53;18.50;5.40
19868;DHT22;10096;51.112;6.776;2023-07-31T04:14:20;18.50;29.70
19868;DHT22;10096;51.112;6.776;2023-07-31T04:16:46;18.60;26.30
19868;DHT22;10096;51.112;6.776;2023-07-31T04:19:15;18.60;1.00
19868;DHT22;10096;51.112;6.776;2023-07-31T04:21:42;18.70;10.00
19868;DHT22;10096;51.112;6.776;2023-07-31T04:24:09;18.50;1.00
19868;DHT22;10096;51.112;6.776;2023-07-31T04:26:36;18.50;52.10
19868;DHT22;10096;51.112;6.776;2023-07-31T04:29:03;18.50;65.80
19868;DHT22;10096;51.112;6.776;2023-07-31T04:31:30;18.40;74.60
19868;DHT22;10096;51.112;6.776;2023-07-31T04:33:57;18.40;98.10
19868;DHT22;10096;51.112;6.776;2023-07-31T04:36:25;18.40;99.90
19868;DHT22;10096;51.112;6.776;2023-07-31T04:38:52;18.30;99.90
19868;DHT22;10096;51.112;6.776;2023-07-31T04:41:19;18.30;99.90
19868;DHT22;10096;51.112;6.776;2023-07-31T04:43:47;18.40;99.90
19868;DHT22;10096;51.112;6.776;2023-07-31T04:46:14;18.30;99.90
19868;DHT22;10096;51.112;6.776;2023-07-31T04:48:41;18.40;99.90
19868;DHT22;10096;51.112;6.776;2023-07-31T04:51:08;18.40;99.90
19868;DHT22;10096;51.112;6.776;2023-07-31T04:53:37;18.60;99.90
19868;DHT22;10096;51.112;6.776;2023-07-31T04:56:04;18.50;99.90
19868;DHT22;10096;51.112;6.776;2023-07-31T04:58:32;18.50;92.80
19868;DHT22;10096;51.112;6.776;2023-07-31T05:00:59;18.30;94.70
19868;DHT22;10096;51.112;6.776;2023-07-31T05:03:26;18.60;32.10
19868;DHT22;10096;51.112;6.776;2023-07-31T05:05:53;18.70;44.10
19868;DHT22;10096;51.112;6.776;2023-07-31T05:08:24;18.90;1.00
19868;DHT22;10096;51.112;6.776;2023-07-31T05:10:53;18.90;1.00
19868;DHT22;10096;51.112;6.776;2023-07-31T05:13:20;18.90;1.00
19868;DHT22;10096;51.112;6.776;2023-07-31T05:15:47;19.10;1.00
19868;DHT22;10096;51.112;6.776;2023-07-31T05:18:15;19.10;1.00
19868;DHT22;10096;51.112;6.776;2023-07-31T05:20:42;19.10;1.00
19868;DHT22;10096;51.112;6.776;2023-07-31T05:23:09;19.10;1.00
19868;DHT22;10096;51.112;6.776;2023-07-31T05:25:37;19.10;1.00
19868;DHT22;10096;51.112;6.776;2023-07-31T05:28:06;19.30;1.00
19868;DHT22;10096;51.112;6.776;2023-07-31T05:30:33;19.30;1.00
19868;DHT22;10096;51.112;6.776;2023-07-31T05:33:00;19.30;1.00
19868;DHT22;10096;51.112;6.776;2023-07-31T05:35:27;19.20;1.00
19868;DHT22;10096;51.112;6.776;2023-07-31T05:37:54;19.30;1.00
19868;DHT22;10096;51.112;6.776;2023-07-31T05:40:21;19.50;1.00
19868;DHT22;10096;51.112;6.776;2023-07-31T05:42:48;19.30;1.00
19868;DHT22;10096;51.112;6.776;2023-07-31T05:45:17;19.30;1.00
19868;DHT22;10096;51.112;6.776;2023-07-31T05:47:43;19.30;1.00
19868;DHT22;10096;51.112;6.776;2023-07-31T05:50:10;19.50;1.00
19868;DHT22;10096;51.112;6.776;2023-07-31T05:52:38;19.20;1.00
19868;DHT22;10096;51.112;6.776;2023-07-31T05:55:06;19.20;1.00
19868;DHT22;10096;51.112;6.776;2023-07-31T05:57:35;19.20;1.00
19868;DHT22;10096;51.112;6.776;2023-07-31T06:00:04;19.10;1.00
19868;DHT22;10096;51.112;6.776;2023-07-31T06:02:33;19.10;1.00
19868;DHT22;10096;51.112;6.776;2023-07-31T06:05:03;19.10;1.00
19868;DHT22;10096;51.112;6.776;2023-07-31T06:07:31;19.10;1.00
19868;DHT22;10096;51.112;6.776;2023-07-31T06:09:58;19.10;1.00
19868;DHT22;10096;51.112;6.776;2023-07-31T06:12:29;19.00;1.00
19868;DHT22;10096;51.112;6.776;2023-07-31T06:14:56;19.00;1.00
19868;DHT22;10096;51.112;6.776;2023-07-31T06:17:23;19.10;1.00
19868;DHT22;10096;51.112;6.776;2023-07-31T06:19:53;19.00;1.00
19868;DHT22;10096;51.112;6.776;2023-07-31T06:22:20;18.90;4.40
19868;DHT22;10096;51.112;6.776;2023-07-31T06:24:47;19.00;1.00
19868;DHT22;10096;51.112;6.776;2023-07-31T06:27:14;18.80;44.70
19868;DHT22;10096;51.112;6.776;2023-07-31T06:29:42;18.90;56.10
19868;DHT22;10096;51.112;6.776;2023-07-31T06:32:10;19.00;30.40
19868;DHT22;10096;51.112;6.776;2023-07-31T06:34:37;18.90;1.00
19868;DHT22;10096;51.112;6.776;2023-07-31T06:37:07;18.70;57.10
19868;DHT22;10096;51.112;6.776;2023-07-31T06:39:35;18.90;98.00
19868;DHT22;10096;51.112;6.776;2023-07-31T06:42:03;18.80;99.90
19868;DHT22;10096;51.112;6.776;2023-07-31T06:44:32;18.90;57.90
19868;DHT22;10096;51.112;6.776;2023-07-31T06:46:59;19.10;1.00
19868;DHT22;10096;51.112;6.776;2023-07-31T06:49:26;19.00;18.40
19868;DHT22;10096;51.112;6.776;2023-07-31T06:51:53;19.10;1.00
19868;DHT22;10096;51.112;6.776;2023-07-31T06:54:22;19.20;1.00
19868;DHT22;10096;51.112;6.776;2023-07-31T06:56:49;19.20;1.00
19868;DHT22;10096;51.112;6.776;2023-07-31T06:59:16;19.40;1.00
19868;DHT22;10096;51.112;6.776;2023-07-31T07:01:43;19.30;1.00
19868;DHT22;10096;51.112;6.776;2023-07-31T07:04:10;19.60;1.00
19868;DHT22;10096;51.112;6.776;2023-07-31T07:06:37;19.50;1.00
19868;DHT22;10096;51.112;6.776;2023-07-31T07:09:03;19.50;1.00
19868;DHT22;10096;51.112;6.776;2023-07-31T07:11:32;19.50;1.00
19868;DHT22;10096;51.112;6.776;2023-07-31T07:13:59;19.50;1.00
19868;DHT22;10096;51.112;6.776;2023-07-31T07:16:28;19.50;1.00
19868;DHT22;10096;51.112;6.776;2023-07-31T07:18:55;19.40;1.00
19868;DHT22;10096;51.112;6.776;2023-07-31T07:21:22;19.30;1.00
19868;DHT22;10096;51.112;6.776;2023-07-31T07:23:49;19.30;1.00
19868;DHT22;10096;51.112;6.776;2023-07-31T07:26:15;19.50;1.00
19868;DHT22;10096;51.112;6.776;2023-07-31T07:28:44;19.40;1.00
19868;DHT22;10096;51.112;6.776;2023-07-31T07:31:11;19.20;1.00
19868;DHT22;10096;51.112;6.776;2023-07-31T07:33:38;19.00;1.00
19868;DHT22;10096;51.112;6.776;2023-07-31T07:36:05;19.10;23.20
19868;DHT22;10096;51.112;6.776;2023-07-31T07:38:36;19.10;1.00
19868;DHT22;10096;51.112;6.776;2023-07-31T07:41:04;19.00;14.90
19868;DHT22;10096;51.112;6.776;2023-07-31T07:43:31;19.00;86.60
19868;DHT22;10096;51.112;6.776;2023-07-31T07:45:59;19.00;99.90
19868;DHT22;10096;51.112;6.776;2023-07-31T07:48:26;19.10;78.20
19868;DHT22;10096;51.112;6.776;2023-07-31T07:50:53;19.10;99.90
19868;DHT22;10096;51.112;6.776;2023-07-31T07:53:22;19.20;91.30
19868;DHT22;10096;51.112;6.776;2023-07-31T07:55:49;19.30;59.10
19868;DHT22;10096;51.112;6.776;2023-07-31T07:58:16;19.30;8.60
19868;DHT22;10096;51.112;6.776;2023-07-31T08:00:51;19.40;1.00
19868;DHT22;10096;51.112;6.776;2023-07-31T08:03:19;19.20;44.20
19868;DHT22;10096;51.112;6.776;2023-07-31T08:05:46;19.10;99.20
19868;DHT22;10096;51.112;6.776;2023-07-31T08:08:14;19.10;42.00
19868;DHT22;10096;51.112;6.776;2023-07-31T08:10:42;19.00;99.90
19868;DHT22;10096;51.112;6.776;2023-07-31T08:13:11;19.10;32.80
19868;DHT22;10096;51.112;6.776;2023-07-31T08:15:38;19.10;99.90
19868;DHT22;10096;51.112;6.776;2023-07-31T08:18:04;19.10;72.30
19868;DHT22;10096;51.112;6.776;2023-07-31T08:20:33;19.40;1.00
19868;DHT22;10096;51.112;6.776;2023-07-31T08:23:01;19.60;8.70
19868;DHT22;10096;51.112;6.776;2023-07-31T08:25:28;19.50;1.00
19868;DHT22;10096;51.112;6.776;2023-07-31T08:27:55;19.60;1.00
19868;DHT22;10096;51.112;6.776;2023-07-31T08:30:22;19.70;1.00
19868;DHT22;10096;51.112;6.776;2023-07-31T08:32:49;19.60;1.00
19868;DHT22;10096;51.112;6.776;2023-07-31T08:35:16;19.70;1.00
19868;DHT22;10096;51.112;6.776;2023-07-31T08:37:45;19.70;1.00
19868;DHT22;10096;51.112;6.776;2023-07-31T08:40:12;19.80;1.00
19868;DHT22;10096;51.112;6.776;2023-07-31T08:42:47;19.70;1.00
19868;DHT22;10096;51.112;6.776;2023-07-31T08:45:15;19.70;1.00
19868;DHT22;10096;51.112;6.776;2023-07-31T08:47:44;19.90;1.00
19868;DHT22;10096;51.112;6.776;2023-07-31T08:50:12;19.90;1.00
19868;DHT22;10096;51.112;6.776;2023-07-31T08:52:40;20.30;1.00
19868;DHT22;10096;51.112;6.776;2023-07-31T08:55:09;20.30;1.00
19868;DHT22;10096;51.112;6.776;2023-07-31T08:57:37;20.40;1.00
19868;DHT22;10096;51.112;6.776;2023-07-31T09:00:06;20.40;1.00
19868;DHT22;10096;51.112;6.776;2023-07-31T09:02:51;20.40;1.00
19868;DHT22;10096;51.112;6.776;2023-07-31T09:05:21;20.50;1.00
19868;DHT22;10096;51.112;6.776;2023-07-31T09:07:50;20.30;1.00
19868;DHT22;10096;51.112;6.776;2023-07-31T09:10:19;19.90;1.00
19868;DHT22;10096;51.112;6.776;2023-07-31T09:12:46;19.90;1.00
19868;DHT22;10096;51.112;6.776;2023-07-31T09:15:14;19.80;1.00
19868;DHT22;10096;51.112;6.776;2023-07-31T09:17:42;19.60;1.00
19868;DHT22;10096;51.112;6.776;2023-07-31T09:20:16;19.60;1.00
19868;DHT22;10096;51.112;6.776;2023-07-31T09:22:43;19.70;1.00
19868;DHT22;10096;51.112;6.776;2023-07-31T09:25:19;19.70;1.00
19868;DHT22;10096;51.112;6.776;2023-07-31T09:27:48;19.60;1.00
19868;DHT22;10096;51.112;6.776;2023-07-31T09:30:15;19.70;1.00
19868;DHT22;10096;51.112;6.776;2023-07-31T09:32:42;19.70;1.00
19868;DHT22;10096;51.112;6.776;2023-07-31T09:35:20;19.80;1.00
19868;DHT22;10096;51.112;6.776;2023-07-31T09:37:51;20.00;1.00
19868;DHT22;10096;51.112;6.776;2023-07-31T09:40:28;20.40;1.00
19868;DHT22;10096;51.112;6.776;2023-07-31T09:42:59;20.30;1.00
19868;DHT22;10096;51.112;6.776;2023-07-31T09:45:26;20.60;1.00
19868;DHT22;10096;51.112;6.776;2023-07-31T09:47:54;20.00;1.00
19868;DHT22;10096;51.112;6.776;2023-07-31T09:50:23;20.10;1.00
19868;DHT22;10096;51.112;6.776;2023-07-31T09:52:50;20.10;1.00
19868;DHT22;10096;51.112;6.776;2023-07-31T09:55:18;20.20;1.00
19868;DHT22;10096;51.112;6.776;2023-07-31T09:57:48;20.40;1.00
19868;DHT22;10096;51.112;6.776;2023-07-31T10:00:17;20.60;1.00
19868;DHT22;10096;51.112;6.776;2023-07-31T10:02:48;20.80;1.00
19868;DHT22;10096;51.112;6.776;2023-07-31T10:05:17;21.00;1.00
19868;DHT22;10096;51.112;6.776;2023-07-31T10:07:51;21.30;1.00
19868;DHT22;10096;51.112;6.776;2023-07-31T10:10:20;21.00;1.00
19868;DHT22;10096;51.112;6.776;2023-07-31T10:12:50;20.90;1.00
19868;DHT22;10096;51.112;6.776;2023-07-31T10:15:19;20.90;1.00
19868;DHT22;10096;51.112;6.776;2023-07-31T10:17:48;20.60;1.00
19868;DHT22;10096;51.112;6.776;2023-07-31T10:20:15;20.60;1.00
19868;DHT22;10096;51.112;6.776;2023-07-31T10:22:43;20.70;1.00
19868;DHT22;10096;51.112;6.776;2023-07-31T10:25:11;20.90;1.00
19868;DHT22;10096;51.112;6.776;2023-07-31T10:27:39;21.00;1.00
19868;DHT22;10096;51.112;6.776;2023-07-31T10:30:11;21.10;1.00
19868;DHT22;10096;51.112;6.776;2023-07-31T10:32:41;21.30;1.00
19868;DHT22;10096;51.112;6.776;2023-07-31T10:35:09;21.60;1.00
19868;DHT22;10096;51.112;6.776;2023-07-31T10:37:37;21.70;1.00
19868;DHT22;10096;51.112;6.776;2023-07-31T10:40:06;21.90;99.90
19868;DHT22;10096;51.112;6.776;2023-07-31T10:42:35;22.10;99.90
19868;DHT22;10096;51.112;6.776;2023-07-31T10:45:04;22.20;99.90
19868;DHT22;10096;51.112;6.776;2023-07-31T10:47:36;22.40;99.90
19868;DHT22;10096;51.112;6.776;2023-07-31T10:50:16;22.40;99.90
19868;DHT22;10096;51.112;6.776;2023-07-31T10:52:47;22.30;99.90
19868;DHT22;10096;51.112;6.776;2023-07-31T10:55:16;22.30;99.90
19868;DHT22;10096;51.112;6.776;2023-07-31T10:57:49;22.70;99.90
19868;DHT22;10096;51.112;6.776;2023-07-31T11:00:21;22.70;99.90
19868;DHT22;10096;51.112;6.776;2023-07-31T11:03:13;22.60;99.90
19868;DHT22;10096;51.112;6.776;2023-07-31T11:05:49;22.30;99.90
19868;DHT22;10096;51.112;6.776;2023-07-31T11:08:20;22.10;99.90
19868;DHT22;10096;51.112;6.776;2023-07-31T11:10:49;22.50;99.90
19868;DHT22;10096;51.112;6.776;2023-07-31T11:13:20;22.60;99.90
19868;DHT22;10096;51.112;6.776;2023-07-31T11:15:47;22.60;99.90
19868;DHT22;10096;51.112;6.776;2023-07-31T11:18:16;22.70;99.90
19868;DHT22;10096;51.112;6.776;2023-07-31T11:20:43;23.00;99.90
19868;DHT22;10096;51.112;6.776;2023-07-31T11:23:17;23.20;99.90
19868;DHT22;10096;51.112;6.776;2023-07-31T11:25:44;23.30;99.90
19868;DHT22;10096;51.112;6.776;2023-07-31T11:28:14;23.10;99.90
19868;DHT22;10096;51.112;6.776;2023-07-31T11:30:43;22.90;99.90
19868;DHT22;10096;51.112;6.776;2023-07-31T11:33:11;22.90;99.90
19868;DHT22;10096;51.112;6.776;2023-07-31T11:35:46;23.30;99.90
19868;DHT22;10096;51.112;6.776;2023-07-31T11:38:21;23.20;99.90
19868;DHT22;10096;51.112;6.776;2023-07-31T11:40:49;23.10;99.90
19868;DHT22;10096;51.112;6.776;2023-07-31T11:43:18;23.20;99.90
19868;DHT22;10096;51.112;6.776;2023-07-31T11:49:15;23.10;99.90
19868;DHT22;10096;51.112;6.776;2023-07-31T11:51:43;23.00;99.90
19868;DHT22;10096;51.112;6.776;2023-07-31T11:54:10;23.00;99.90
19868;DHT22;10096;51.112;6.776;2023-07-31T11:56:41;22.90;99.90
19868;DHT22;10096;51.112;6.776;2023-07-31T11:59:10;22.70;99.90
19868;DHT22;10096;51.112;6.776;2023-07-31T12:01:38;22.70;99.90
19868;DHT22;10096;51.112;6.776;2023-07-31T12:04:05;22.70;99.90
19868;DHT22;10096;51.112;6.776;2023-07-31T12:06:33;22.60;99.90
19868;DHT22;10096;51.112;6.776;2023-07-31T12:09:03;22.50;99.90
19868;DHT22;10096;51.112;6.776;2023-07-31T12:11:45;22.60;99.90
19868;DHT22;10096;51.112;6.776;2023-07-31T12:16:33;22.60;99.90
19868;DHT22;10096;51.112;6.776;2023-07-31T12:18:09;22.70;99.90
19868;DHT22;10096;51.112;6.776;2023-07-31T12:20:58;22.60;99.90
19868;DHT22;10096;51.112;6.776;2023-07-31T12:23:32;23.30;99.90
19868;DHT22;10096;51.112;6.776;2023-07-31T12:26:05;23.40;99.90
19868;DHT22;10096;51.112;6.776;2023-07-31T12:28:35;23.60;99.90
19868;DHT22;10096;51.112;6.776;2023-07-31T12:31:04;23.20;99.90
19868;DHT22;10096;51.112;6.776;2023-07-31T12:33:33;23.00;99.90
19868;DHT22;10096;51.112;6.776;2023-07-31T12:36:02;22.80;99.90
19868;DHT22;10096;51.112;6.776;2023-07-31T12:38:29;22.50;99.90
19868;DHT22;10096;51.112;6.776;2023-07-31T12:40:56;22.40;99.90
19868;DHT22;10096;51.112;6.776;2023-07-31T12:43:24;22.70;99.90
19868;DHT22;10096;51.112;6.776;2023-07-31T12:45:53;22.90;99.90
19868;DHT22;10096;51.112;6.776;2023-07-31T12:48:20;22.90;99.90
19868;DHT22;10096;51.112;6.776;2023-07-31T12:50:47;22.90;99.90
19868;DHT22;10096;51.112;6.776;2023-07-31T12:53:15;23.00;99.90
19868;DHT22;10096;51.112;6.776;2023-07-31T12:55:42;22.90;99.90
19868;DHT22;10096;51.112;6.776;2023-07-31T12:58:09;23.00;99.90
19868;DHT22;10096;51.112;6.776;2023-07-31T13:00:37;23.10;99.90
19868;DHT22;10096;51.112;6.776;2023-07-31T13:03:05;23.10;99.90
19868;DHT22;10096;51.112;6.776;2023-07-31T13:05:31;23.40;99.90
19868;DHT22;10096;51.112;6.776;2023-07-31T13:07:58;23.70;99.90
19868;DHT22;10096;51.112;6.776;2023-07-31T13:10:27;23.40;99.90
19868;DHT22;10096;51.112;6.776;2023-07-31T13:12:55;23.00;99.90
19868;DHT22;10096;51.112;6.776;2023-07-31T13:15:22;22.90;99.90
19868;DHT22;10096;51.112;6.776;2023-07-31T13:17:50;22.80;99.90
19868;DHT22;10096;51.112;6.776;2023-07-31T13:20:17;22.90;99.90
19868;DHT22;10096;51.112;6.776;2023-07-31T13:22:44;22.90;99.90
19868;DHT22;10096;51.112;6.776;2023-07-31T13:25:11;22.90;99.90
19868;DHT22;10096;51.112;6.776;2023-07-31T13:27:38;23.10;99.90
19868;DHT22;10096;51.112;6.776;2023-07-31T13:30:06;23.40;99.90
19868;DHT22;10096;51.112;6.776;2023-07-31T13:32:34;23.60;99.90
19868;DHT22;10096;51.112;6.776;2023-07-31T13:35:05;23.80;99.90
19868;DHT22;10096;51.112;6.776;2023-07-31T13:37:33;24.00;99.90
19868;DHT22;10096;51.112;6.776;2023-07-31T13:40:01;24.10;99.90
19868;DHT22;10096;51.112;6.776;2023-07-31T13:42:30;24.20;99.90
19868;DHT22;10096;51.112;6.776;2023-07-31T13:44:57;24.20;99.90
19868;DHT22;10096;51.112;6.776;2023-07-31T13:47:24;24.30;99.90
19868;DHT22;10096;51.112;6.776;2023-07-31T13:49:51;24.20;99.90
19868;DHT22;10096;51.112;6.776;2023-07-31T13:52:21;24.00;99.90
19868;DHT22;10096;51.112;6.776;2023-07-31T13:54:48;23.80;99.90
19868;DHT22;10096;51.112;6.776;2023-07-31T13:57:15;23.90;99.90
19868;DHT22;10096;51.112;6.776;2023-07-31T13:59:42;24.10;99.90
19868;DHT22;10096;51.112;6.776;2023-07-31T14:02:09;24.50;99.90
19868;DHT22;10096;51.112;6.776;2023-07-31T14:04:36;24.30;99.90
19868;DHT22;10096;51.112;6.776;2023-07-31T14:07:04;24.20;99.90
19868;DHT22;10096;51.112;6.776;2023-07-31T14:09:32;23.80;99.90
19868;DHT22;10096;51.112;6.776;2023-07-31T14:11:59;23.80;99.90
19868;DHT22;10096;51.112;6.776;2023-07-31T14:14:26;23.60;99.90
19868;DHT22;10096;51.112;6.776;2023-07-31T14:16:53;23.20;99.90
19868;DHT22;10096;51.112;6.776;2023-07-31T14:19:20;23.30;99.90
19868;DHT22;10096;51.112;6.776;2023-07-31T14:21:47;23.10;99.90
19868;DHT22;10096;51.112;6.776;2023-07-31T14:24:14;23.10;99.90
19868;DHT22;10096;51.112;6.776;2023-07-31T14:26:44;23.00;99.90
19868;DHT22;10096;51.112;6.776;2023-07-31T14:29:11;22.90;99.90
19868;DHT22;10096;51.112;6.776;2023-07-31T14:31:38;22.90;99.90
19868;DHT22;10096;51.112;6.776;2023-07-31T14:34:05;23.00;99.90
19868;DHT22;10096;51.112;6.776;2023-07-31T14:36:32;23.10;99.90
19868;DHT22;10096;51.112;6.776;2023-07-31T14:38:59;23.20;99.90
19868;DHT22;10096;51.112;6.776;2023-07-31T14:41:26;23.30;99.90
19868;DHT22;10096;51.112;6.776;2023-07-31T14:43:55;23.30;99.90
19868;DHT22;10096;51.112;6.776;2023-07-31T14:46:22;23.30;99.90
19868;DHT22;10096;51.112;6.776;2023-07-31T14:48:49;23.50;99.90
19868;DHT22;10096;51.112;6.776;2023-07-31T14:51:19;23.60;99.90
19868;DHT22;10096;51.112;6.776;2023-07-31T14:53:56;23.80;99.90
19868;DHT22;10096;51.112;6.776;2023-07-31T14:56:23;23.70;99.90
19868;DHT22;10096;51.112;6.776;2023-07-31T14:58:55;23.80;99.90
19868;DHT22;10096;51.112;6.776;2023-07-31T15:01:23;23.90;99.90
19868;DHT22;10096;51.112;6.776;2023-07-31T15:03:51;23.80;99.90
19868;DHT22;10096;51.112;6.776;2023-07-31T15:06:17;23.40;99.90
19868;DHT22;10096;51.112;6.776;2023-07-31T15:08:44;23.30;99.90
19868;DHT22;10096;51.112;6.776;2023-07-31T15:11:11;23.20;99.90
19868;DHT22;10096;51.112;6.776;2023-07-31T15:13:41;23.10;99.90
19868;DHT22;10096;51.112;6.776;2023-07-31T15:16:09;23.20;99.90
19868;DHT22;10096;51.112;6.776;2023-07-31T15:18:36;23.20;99.90
19868;DHT22;10096;51.112;6.776;2023-07-31T15:21:03;23.30;99.90
19868;DHT22;10096;51.112;6.776;2023-07-31T15:23:32;23.30;99.90
19868;DHT22;10096;51.112;6.776;2023-07-31T15:25:59;23.30;99.90
19868;DHT22;10096;51.112;6.776;2023-07-31T15:28:26;23.00;99.90
19868;DHT22;10096;51.112;6.776;2023-07-31T15:30:53;23.00;99.90
19868;DHT22;10096;51.112;6.776;2023-07-31T15:33:24;22.80;99.90
19868;DHT22;10096;51.112;6.776;2023-07-31T15:35:52;22.80;99.90
19868;DHT22;10096;51.112;6.776;2023-07-31T15:38:21;22.80;99.90
19868;DHT22;10096;51.112;6.776;2023-07-31T15:40:48;22.90;99.90
19868;DHT22;10096;51.112;6.776;2023-07-31T15:43:16;22.70;99.90
19868;DHT22;10096;51.112;6.776;2023-07-31T15:45:43;22.50;99.90
19868;DHT22;10096;51.112;6.776;2023-07-31T15:48:10;22.40;99.90
19868;DHT22;10096;51.112;6.776;2023-07-31T15:50:40;22.50;99.90